createdAt,value
2018-12-24T00:00:34.154Z,4.60
2018-12-24T00:03:22.233Z,4.07
2018-12-24T00:05:57.882Z,4.83
2018-12-24T00:08:30.802Z,4.73
2018-12-24T00:11:08.438Z,4.93
2018-12-24T00:13:43.178Z,4.80
2018-12-24T00:16:16.471Z,4.70
2018-12-24T00:18:50.409Z,4.83
2018-12-24T00:21:23.142Z,4.60
2018-12-24T00:24:00.767Z,4.50
2018-12-24T00:26:32.541Z,5.40
2018-12-24T00:29:07.577Z,5.20
2018-12-24T00:31:42.122Z,4.80
2018-12-24T00:34:15.400Z,4.83
2018-12-24T00:36:53.212Z,4.67
2018-12-24T00:39:26.272Z,4.40
2018-12-24T00:42:01.491Z,4.80
2018-12-24T00:44:40.032Z,5.80
2018-12-24T00:47:15.479Z,6.27
2018-12-24T00:49:48.573Z,5.80
2018-12-24T00:52:26.079Z,5.87
2018-12-24T00:55:00.995Z,6.07
2018-12-24T00:57:36.356Z,6.10
2018-12-24T01:00:08.900Z,6.43
2018-12-24T01:02:41.164Z,7.03
2018-12-24T01:05:13.690Z,7.00
2018-12-24T01:07:49.867Z,6.90
2018-12-24T01:10:27.851Z,6.67
2018-12-24T01:13:04.597Z,6.87
2018-12-24T01:15:44.652Z,6.90
2018-12-24T01:18:16.557Z,7.20
2018-12-24T01:20:50.986Z,6.83
2018-12-24T01:23:28.547Z,7.40
2018-12-24T01:26:00.703Z,8.37
2018-12-24T01:28:38.029Z,8.97
2018-12-24T01:31:15.193Z,9.30
2018-12-24T01:33:48.010Z,8.90
2018-12-24T01:36:20.502Z,8.73
2018-12-24T01:38:55.287Z,9.10
2018-12-24T01:41:30.350Z,7.43
2018-12-24T01:44:13.511Z,6.97
2018-12-24T01:46:48.114Z,7.10
2018-12-24T01:49:24.667Z,6.40
2018-12-24T01:51:59.194Z,6.47
2018-12-24T01:54:32.367Z,6.00
2018-12-24T01:57:03.938Z,5.57
2018-12-24T01:59:38.830Z,5.70
2018-12-24T02:02:13.075Z,5.53
2018-12-24T02:04:54.974Z,6.30
2018-12-24T02:07:31.461Z,6.70
2018-12-24T02:10:10.187Z,5.97
2018-12-24T02:12:44.302Z,5.73
2018-12-24T02:15:21.700Z,5.47
2018-12-24T02:18:00.203Z,5.03
2018-12-24T02:20:40.524Z,6.40
2018-12-24T02:23:15.092Z,6.03
2018-12-24T02:25:49.964Z,5.73
2018-12-24T02:28:26.558Z,5.60
2018-12-24T02:30:58.532Z,5.00
2018-12-24T02:33:34.914Z,5.40
2018-12-24T02:36:11.715Z,5.30
2018-12-24T02:38:47.113Z,4.80
2018-12-24T02:41:24.528Z,5.27
2018-12-24T02:44:06.142Z,5.07
2018-12-24T02:46:41.850Z,5.40
2018-12-24T02:49:15.686Z,5.60
2018-12-24T02:51:46.860Z,5.43
2018-12-24T02:57:21.402Z,6.93
2018-12-24T02:59:52.552Z,7.13
2018-12-24T03:02:26.046Z,6.77
2018-12-24T03:05:00.275Z,6.10
2018-12-24T03:07:32.430Z,6.37
2018-12-24T03:10:12.279Z,6.70
2018-12-24T03:12:48.090Z,6.30
2018-12-24T03:15:23.755Z,6.00
2018-12-24T03:17:59.130Z,6.43
2018-12-24T03:20:33.520Z,6.40
2018-12-24T03:23:08.661Z,6.00
2018-12-24T03:25:41.869Z,6.23
2018-12-24T03:28:22.560Z,6.23
2018-12-24T03:31:04.598Z,6.53
2018-12-24T03:33:39.185Z,6.27
2018-12-24T03:36:18.124Z,6.10
2018-12-24T03:38:52.088Z,6.63
2018-12-24T03:41:26.384Z,6.37
2018-12-24T03:44:00.972Z,6.23
2018-12-24T03:46:33.126Z,6.60
2018-12-24T03:49:11.465Z,6.07
2018-12-24T03:51:54.492Z,6.33
2018-12-24T03:54:30.983Z,6.80
2018-12-24T03:57:02.614Z,6.73
2018-12-24T03:59:36.800Z,6.47
2018-12-24T04:02:12.230Z,6.80
2018-12-24T04:04:44.808Z,6.60
2018-12-24T04:07:20.280Z,6.67
2018-12-24T04:09:53.271Z,6.87
2018-12-24T04:12:27.400Z,6.53
2018-12-24T04:15:01.031Z,6.23
2018-12-24T04:17:32.547Z,6.03
2018-12-24T04:20:07.274Z,6.13
2018-12-24T04:22:41.924Z,5.93
2018-12-24T04:25:15.318Z,5.83
2018-12-24T04:27:48.383Z,6.23
2018-12-24T04:30:23.228Z,6.10
2018-12-24T04:32:56.251Z,5.57
2018-12-24T04:35:32.152Z,6.23
2018-12-24T04:38:16.198Z,6.17
2018-12-24T04:40:48.083Z,6.20
2018-12-24T04:44:23.348Z,6.13
2018-12-24T04:46:54.860Z,5.57
2018-12-24T04:49:28.882Z,5.50
2018-12-24T04:52:02.902Z,5.67
2018-12-24T04:54:46.968Z,5.80
2018-12-24T04:57:26.045Z,5.63
2018-12-24T04:59:57.661Z,5.67
2018-12-24T05:02:29.936Z,5.80
2018-12-24T05:05:01.949Z,6.33
2018-12-24T05:07:35.588Z,5.60
2018-12-24T05:10:10.643Z,6.20
2018-12-24T05:12:53.119Z,6.40
2018-12-24T05:15:28.724Z,6.30
2018-12-24T05:18:02.188Z,6.47
2018-12-24T05:20:34.377Z,5.70
2018-12-24T05:23:06.994Z,6.13
2018-12-24T05:25:38.697Z,6.67
2018-12-24T05:28:11.128Z,6.40
2018-12-24T05:30:41.543Z,7.70
2018-12-24T05:33:18.166Z,7.73
2018-12-24T05:35:52.897Z,8.50
2018-12-24T05:38:24.516Z,7.83
2018-12-24T05:40:57.120Z,7.60
2018-12-24T05:43:28.962Z,7.10
2018-12-24T05:46:02.182Z,6.73
2018-12-24T05:48:34.256Z,7.50
2018-12-24T05:51:06.800Z,7.90
2018-12-24T05:53:38.304Z,7.97
2018-12-24T05:56:13.589Z,7.80
2018-12-24T05:58:47.504Z,7.33
2018-12-24T06:01:21.515Z,9.17
2018-12-24T06:03:52.904Z,10.40
2018-12-24T06:06:25.932Z,8.70
2018-12-24T06:08:59.747Z,9.00
2018-12-24T06:11:34.406Z,8.43
2018-12-24T06:14:09.304Z,8.20
2018-12-24T06:16:48.974Z,8.90
2018-12-24T06:19:20.949Z,8.30
2018-12-24T06:21:54.437Z,8.60
2018-12-24T06:24:29.083Z,7.87
2018-12-24T06:27:01.031Z,8.30
2018-12-24T06:29:35.117Z,8.60
2018-12-24T06:32:12.751Z,8.00
2018-12-24T06:34:59.714Z,8.70
2018-12-24T06:38:02.317Z,8.33
2018-12-24T06:40:36.024Z,8.33
2018-12-24T06:43:09.107Z,8.73
2018-12-24T06:45:41.995Z,7.90
2018-12-24T06:48:14.779Z,8.43
2018-12-24T06:50:46.650Z,7.83
2018-12-24T06:53:18.147Z,7.73
2018-12-24T06:55:49.039Z,7.87
2018-12-24T06:58:20.636Z,7.87
2018-12-24T07:00:51.637Z,7.77
2018-12-24T07:03:25.511Z,8.40
2018-12-24T07:05:58.845Z,8.20
2018-12-24T07:08:33.518Z,8.33
2018-12-24T07:11:10.725Z,8.23
2018-12-24T07:13:41.804Z,8.37
2018-12-24T07:16:13.222Z,8.90
2018-12-24T07:18:44.994Z,8.20
2018-12-24T07:21:17.129Z,8.93
2018-12-24T07:23:52.342Z,9.23
2018-12-24T07:26:26.123Z,9.47
2018-12-24T07:28:59.208Z,9.97
2018-12-24T07:31:31.633Z,10.60
2018-12-24T07:34:03.795Z,10.93
2018-12-24T07:36:36.066Z,11.93
2018-12-24T07:39:09.452Z,11.20
2018-12-24T07:41:42.783Z,11.07
2018-12-24T07:44:14.010Z,11.90
2018-12-24T07:46:56.422Z,12.23
2018-12-24T07:49:28.691Z,12.30
2018-12-24T07:52:02.602Z,12.17
2018-12-24T07:54:35.704Z,11.93
2018-12-24T07:57:07.350Z,11.50
2018-12-24T07:59:40.852Z,11.40
2018-12-24T08:02:13.224Z,9.97
2018-12-24T08:04:43.822Z,10.27
2018-12-24T08:07:17.019Z,9.77
2018-12-24T08:09:54.297Z,9.40
2018-12-24T08:12:26.776Z,8.43
2018-12-24T08:14:59.908Z,8.40
2018-12-24T08:17:35.236Z,8.23
2018-12-24T08:20:07.724Z,8.00
2018-12-24T08:22:40.273Z,8.33
2018-12-24T08:25:11.151Z,8.10
2018-12-24T08:27:41.965Z,8.00
2018-12-24T08:30:17.716Z,7.90
2018-12-24T08:32:50.398Z,8.03
2018-12-24T08:35:22.367Z,7.80
2018-12-24T08:37:57.601Z,7.93
2018-12-24T08:40:30.826Z,7.70
2018-12-24T08:43:04.745Z,7.70
2018-12-24T08:45:36.796Z,7.20
2018-12-24T08:48:11.507Z,7.40
2018-12-24T08:50:45.126Z,7.60
2018-12-24T08:53:17.360Z,7.10
2018-12-24T08:55:47.713Z,6.83
2018-12-24T08:58:19.161Z,6.57
2018-12-24T09:00:52.371Z,6.80
2018-12-24T09:03:28.349Z,6.53
2018-12-24T09:06:00.095Z,6.90
2018-12-24T09:08:32.455Z,6.07
2018-12-24T09:11:04.462Z,5.90
2018-12-24T09:13:37.336Z,6.37
2018-12-24T09:16:11.836Z,6.17
2018-12-24T09:18:46.451Z,5.90
2018-12-24T09:21:18.713Z,5.70
2018-12-24T09:24:03.387Z,5.23
2018-12-24T09:26:34.017Z,5.73
2018-12-24T09:29:05.397Z,5.50
2018-12-24T09:31:37.459Z,5.10
2018-12-24T09:34:16.157Z,4.70
2018-12-24T09:36:57.641Z,4.50
2018-12-24T09:39:31.494Z,4.30
2018-12-24T09:42:03.953Z,4.33
2018-12-24T09:44:40.420Z,4.40
2018-12-24T09:47:10.929Z,4.20
2018-12-24T09:49:45.818Z,4.73
2018-12-24T09:52:18.852Z,4.40
2018-12-24T09:54:51.944Z,4.23
2018-12-24T09:57:22.987Z,4.30
2018-12-24T09:59:54.891Z,3.83
2018-12-24T10:02:37.704Z,3.40
2018-12-24T10:05:11.868Z,3.27
2018-12-24T10:07:42.559Z,3.60
2018-12-24T10:10:19.593Z,3.47
2018-12-24T10:12:50.942Z,2.93
2018-12-24T10:15:22.121Z,3.20
2018-12-24T10:17:58.699Z,3.00
2018-12-24T10:20:31.993Z,3.20
2018-12-24T10:23:05.706Z,2.80
2018-12-24T10:25:43.479Z,3.10
2018-12-24T10:28:15.843Z,3.37
2018-12-24T10:30:47.827Z,3.20
2018-12-24T10:33:18.639Z,3.13
2018-12-24T10:35:51.175Z,3.10
2018-12-24T10:38:21.892Z,2.90
2018-12-24T10:41:05.983Z,3.10
2018-12-24T10:43:39.661Z,3.07
2018-12-24T10:46:17.693Z,2.93
2018-12-24T10:48:53.008Z,2.87
2018-12-24T10:51:25.457Z,2.83
2018-12-24T10:53:58.913Z,2.80
2018-12-24T10:56:32.865Z,2.70
2018-12-24T10:59:09.531Z,2.50
2018-12-24T11:01:42.099Z,2.30
2018-12-24T11:04:18.000Z,2.23
2018-12-24T11:06:49.503Z,2.57
2018-12-24T11:09:22.046Z,2.30
2018-12-24T11:11:56.103Z,2.20
2018-12-24T11:14:28.085Z,2.10
2018-12-24T11:17:06.420Z,2.37
2018-12-24T11:19:38.499Z,2.10
2018-12-24T11:22:09.952Z,2.10
2018-12-24T11:24:44.402Z,2.00
2018-12-24T11:27:16.542Z,2.20
2018-12-24T11:29:51.146Z,2.20
2018-12-24T11:32:24.355Z,2.33
2018-12-24T11:34:58.399Z,2.23
2018-12-24T11:37:37.331Z,2.30
2018-12-24T11:40:08.551Z,2.30
2018-12-24T11:42:45.693Z,2.30
2018-12-24T11:45:22.391Z,2.63
2018-12-24T11:47:59.631Z,2.10
2018-12-24T11:50:31.609Z,2.37
2018-12-24T11:53:04.263Z,2.30
2018-12-24T11:55:35.535Z,2.20
2018-12-24T11:58:13.466Z,2.03
2018-12-24T12:00:40.416Z,2.60
2018-12-24T12:03:15.559Z,2.10
2018-12-24T12:05:48.460Z,2.20
2018-12-24T12:08:24.808Z,2.10
2018-12-24T12:10:58.091Z,2.10
2018-12-24T12:13:36.009Z,2.33
2018-12-24T12:16:11.450Z,2.40
2018-12-24T12:18:45.511Z,2.20
2018-12-24T12:21:17.222Z,2.03
2018-12-24T12:23:51.454Z,2.33
2018-12-24T12:26:24.195Z,2.10
2018-12-24T12:29:01.281Z,2.23
2018-12-24T12:31:33.383Z,1.90
2018-12-24T12:34:06.264Z,1.90
2018-12-24T12:36:38.251Z,1.87
2018-12-24T12:39:17.514Z,1.90
2018-12-24T12:41:51.550Z,1.90
2018-12-24T12:44:23.156Z,1.80
2018-12-24T12:46:55.224Z,1.93
2018-12-24T12:49:29.120Z,2.00
2018-12-24T12:52:02.974Z,2.10
2018-12-24T12:54:35.978Z,2.20
2018-12-24T12:57:27.012Z,2.30
2018-12-24T13:00:01.116Z,2.37
2018-12-24T13:02:38.652Z,2.40
2018-12-24T13:05:18.194Z,2.33
2018-12-24T13:07:59.069Z,2.30
2018-12-24T13:10:35.587Z,2.70
2018-12-24T13:13:13.394Z,2.50
2018-12-24T13:15:59.550Z,2.50
2018-12-24T13:18:28.434Z,2.70
2018-12-24T13:21:16.596Z,3.30
2018-12-24T13:24:15.587Z,3.27
2018-12-24T13:26:52.588Z,3.17
2018-12-24T13:29:29.857Z,3.40
2018-12-24T13:32:37.724Z,2.80
2018-12-24T13:35:29.332Z,2.90
2018-12-24T13:38:03.951Z,3.33
2018-12-24T13:40:36.537Z,3.10
2018-12-24T13:43:11.977Z,2.90
2018-12-24T13:45:47.792Z,3.00
2018-12-24T13:48:19.634Z,3.40
2018-12-24T13:50:52.643Z,3.30
2018-12-24T13:53:27.066Z,3.60
2018-12-24T13:55:59.479Z,3.73
2018-12-24T13:58:35.458Z,4.00
2018-12-24T14:01:06.571Z,3.67
2018-12-24T14:03:37.157Z,4.40
2018-12-24T14:06:12.868Z,3.97
2018-12-24T14:08:44.755Z,3.70
2018-12-24T14:11:26.071Z,4.20
2018-12-24T14:14:18.147Z,4.20
2018-12-24T14:16:50.729Z,3.60
2018-12-24T14:19:22.263Z,3.50
2018-12-24T14:21:55.130Z,3.33
2018-12-24T14:24:28.080Z,3.60
2018-12-24T14:27:01.757Z,3.80
2018-12-24T14:29:43.055Z,3.90
2018-12-24T14:32:15.924Z,3.83
2018-12-24T14:34:50.324Z,3.90
2018-12-24T14:37:25.263Z,3.90
2018-12-24T14:40:03.501Z,3.70
2018-12-24T14:42:38.279Z,3.50
2018-12-24T14:45:10.605Z,3.50
2018-12-24T14:47:44.893Z,3.73
2018-12-24T14:50:18.499Z,3.40
2018-12-24T14:52:53.722Z,3.73
2018-12-24T14:55:25.669Z,3.80
2018-12-24T14:57:59.789Z,3.80
2018-12-24T15:00:32.808Z,3.70
2018-12-24T15:03:04.874Z,3.57
2018-12-24T15:05:36.567Z,3.57
2018-12-24T15:08:09.831Z,3.90
2018-12-24T15:10:42.675Z,3.80
2018-12-24T15:13:13.484Z,3.57
2018-12-24T15:15:45.481Z,3.57
2018-12-24T15:18:16.988Z,3.90
2018-12-24T15:20:47.724Z,4.00
2018-12-24T15:23:18.854Z,4.00
2018-12-24T15:25:54.112Z,3.97
2018-12-24T15:28:26.276Z,4.07
2018-12-24T15:30:58.781Z,3.90
2018-12-24T15:33:30.225Z,4.07
2018-12-24T15:36:00.532Z,3.90
2018-12-24T15:38:32.728Z,3.80
2018-12-24T15:41:06.720Z,4.00
2018-12-24T15:43:37.657Z,4.30
2018-12-24T15:46:09.416Z,3.53
2018-12-24T15:48:41.087Z,3.90
2018-12-24T15:51:13.673Z,3.90
2018-12-24T15:53:46.619Z,3.87
2018-12-24T15:56:18.216Z,4.30
2018-12-24T15:58:53.355Z,3.97
2018-12-24T16:01:26.714Z,4.17
2018-12-24T16:04:03.489Z,3.97
2018-12-24T16:06:42.052Z,4.20
2018-12-24T16:09:13.883Z,3.90
2018-12-24T16:11:48.002Z,3.90
2018-12-24T16:14:18.979Z,4.23
2018-12-24T16:16:52.025Z,3.87
2018-12-24T16:19:24.027Z,4.63
2018-12-24T16:21:55.059Z,4.40
2018-12-24T16:24:25.785Z,4.33
2018-12-24T16:26:58.644Z,4.57
2018-12-24T16:29:30.309Z,4.50
2018-12-24T16:32:10.309Z,4.50
2018-12-24T16:34:41.453Z,4.37
2018-12-24T16:37:14.841Z,4.10
2018-12-24T16:39:46.092Z,4.30
2018-12-24T16:42:19.405Z,4.43
2018-12-24T16:44:57.797Z,4.17
2018-12-24T16:47:38.058Z,4.87
2018-12-24T16:50:11.995Z,4.87
2018-12-24T16:52:44.123Z,4.43
2018-12-24T16:55:15.382Z,5.00
2018-12-24T16:57:45.814Z,4.90
2018-12-24T17:00:19.331Z,5.10
2018-12-24T17:02:52.928Z,6.30
2018-12-24T17:05:25.878Z,6.10
2018-12-24T17:07:59.994Z,5.93
2018-12-24T17:10:31.403Z,6.03
2018-12-24T17:13:02.378Z,6.20
2018-12-24T17:15:34.761Z,6.07
2018-12-24T17:18:07.390Z,7.10
2018-12-24T17:20:38.516Z,6.40
2018-12-24T17:23:09.193Z,6.20
2018-12-24T17:25:40.831Z,6.10
2018-12-24T17:28:11.774Z,6.50
2018-12-24T17:30:44.545Z,6.77
2018-12-24T17:33:17.218Z,6.57
2018-12-24T17:35:48.401Z,6.53
2018-12-24T17:38:21.325Z,6.90
2018-12-24T17:40:56.612Z,7.03
2018-12-24T17:43:30.182Z,6.90
2018-12-24T17:46:01.084Z,6.73
2018-12-24T17:48:39.536Z,7.20
2018-12-24T17:51:13.553Z,7.13
2018-12-24T17:53:45.857Z,7.77
2018-12-24T17:56:19.485Z,7.60
2018-12-24T17:58:52.620Z,6.87
2018-12-24T18:01:26.446Z,7.57
2018-12-24T18:04:02.001Z,7.53
2018-12-24T18:06:37.423Z,7.10
2018-12-24T18:09:09.108Z,6.93
2018-12-24T18:11:42.583Z,6.67
2018-12-24T18:14:14.433Z,6.50
2018-12-24T18:16:49.584Z,6.90
2018-12-24T18:19:21.883Z,11.07
2018-12-24T18:21:53.222Z,9.30
2018-12-24T18:24:25.770Z,8.50
2018-12-24T18:26:57.908Z,7.70
2018-12-24T18:29:33.966Z,6.93
2018-12-24T18:32:08.703Z,6.60
2018-12-24T18:34:44.060Z,6.73
2018-12-24T18:37:15.493Z,6.93
2018-12-24T18:39:52.168Z,6.53
2018-12-24T18:42:28.876Z,7.10
2018-12-24T18:45:04.089Z,7.00
2018-12-24T18:47:35.776Z,6.73
2018-12-24T18:50:10.897Z,7.33
2018-12-24T18:52:42.170Z,6.57
2018-12-24T18:55:13.141Z,6.70
2018-12-24T18:57:44.184Z,7.40
2018-12-24T19:00:16.283Z,7.27
2018-12-24T19:02:47.529Z,7.70
2018-12-24T19:05:19.590Z,7.17
2018-12-24T19:07:52.700Z,7.53
2018-12-24T19:10:23.058Z,7.93
2018-12-24T19:12:54.510Z,8.33
2018-12-24T19:15:26.780Z,8.10
2018-12-24T19:17:58.729Z,6.97
2018-12-24T19:20:31.337Z,7.60
2018-12-24T19:23:02.047Z,7.57
2018-12-24T19:25:37.950Z,8.10
2018-12-24T19:28:13.669Z,8.40
2018-12-24T19:30:45.024Z,8.70
2018-12-24T19:33:16.931Z,8.17
2018-12-24T19:35:50.888Z,8.80
2018-12-24T19:38:22.903Z,8.40
2018-12-24T19:40:59.039Z,9.20
2018-12-24T19:43:31.776Z,9.37
2018-12-24T19:46:07.609Z,9.43
2018-12-24T19:48:39.901Z,9.30
2018-12-24T19:51:12.202Z,10.97
2018-12-24T19:53:43.411Z,11.37
2018-12-24T19:56:16.135Z,10.87
2018-12-24T19:58:51.447Z,11.80
2018-12-24T20:01:23.494Z,11.13
2018-12-24T20:03:55.965Z,11.73
2018-12-24T20:06:30.164Z,12.77
2018-12-24T20:09:05.094Z,13.23
2018-12-24T20:11:38.249Z,12.70
2018-12-24T20:14:10.690Z,11.57
2018-12-24T20:16:41.175Z,11.50
2018-12-24T20:19:12.797Z,11.60
2018-12-24T20:21:44.538Z,10.00
2018-12-24T20:24:15.945Z,9.30
2018-12-24T20:26:47.507Z,10.03
2018-12-24T20:29:18.315Z,9.57
2018-12-24T20:31:50.362Z,8.90
2018-12-24T20:34:21.962Z,8.77
2018-12-24T20:36:53.864Z,9.63
2018-12-24T20:39:29.452Z,9.50
2018-12-24T20:42:02.585Z,9.47
2018-12-24T20:44:34.693Z,9.37
2018-12-24T20:47:06.553Z,9.33
2018-12-24T20:49:38.209Z,10.33
2018-12-24T20:52:09.951Z,9.43
2018-12-24T20:54:43.451Z,9.77
2018-12-24T20:57:15.657Z,10.40
2018-12-24T20:59:48.731Z,9.07
2018-12-24T21:02:20.196Z,9.93
2018-12-24T21:04:58.296Z,9.77
2018-12-24T21:07:31.643Z,9.60
2018-12-24T21:10:04.370Z,9.70
2018-12-24T21:12:35.741Z,10.30
2018-12-24T21:15:06.534Z,10.13
2018-12-24T21:17:38.317Z,10.03
2018-12-24T21:20:11.500Z,10.00
2018-12-24T21:22:43.023Z,9.40
2018-12-24T21:25:15.870Z,10.00
2018-12-24T21:27:47.134Z,9.73
2018-12-24T21:30:29.009Z,10.13
2018-12-24T21:33:01.368Z,10.20
2018-12-24T21:35:34.619Z,10.20
2018-12-24T21:38:10.209Z,9.77
2018-12-24T21:40:49.200Z,10.07
2018-12-24T21:43:21.820Z,9.97
2018-12-24T21:45:52.381Z,10.33
2018-12-24T21:48:23.860Z,10.53
2018-12-24T21:50:57.509Z,11.40
2018-12-24T21:53:29.593Z,11.90
2018-12-24T21:56:00.848Z,11.97
2018-12-24T21:58:31.586Z,12.07
2018-12-24T22:01:05.909Z,11.90
2018-12-24T22:03:40.283Z,12.37
2018-12-24T22:06:12.797Z,12.87
2018-12-24T22:08:44.009Z,12.50
2018-12-24T22:11:17.765Z,12.67
2018-12-24T22:13:51.246Z,12.47
2018-12-24T22:16:24.399Z,13.10
2018-12-24T22:18:58.453Z,13.20
2018-12-24T22:21:37.381Z,13.70
2018-12-24T22:24:09.314Z,13.47
2018-12-24T22:26:42.656Z,13.00
2018-12-24T22:29:13.845Z,13.27
2018-12-24T22:31:44.435Z,13.10
2018-12-24T22:34:15.955Z,14.37
2018-12-24T22:36:47.207Z,13.90
2018-12-24T22:39:17.632Z,13.90
2018-12-24T22:41:50.187Z,13.53
2018-12-24T22:44:21.051Z,13.17
2018-12-24T22:46:56.233Z,14.37
2018-12-24T22:49:29.606Z,13.23
2018-12-24T22:52:02.551Z,14.63
2018-12-24T22:54:35.647Z,13.23
2018-12-24T22:57:07.635Z,14.00
2018-12-24T22:59:38.883Z,12.67
2018-12-24T23:02:10.643Z,14.20
2018-12-24T23:04:41.487Z,13.97
2018-12-24T23:07:13.977Z,13.13
2018-12-24T23:09:50.429Z,13.00
2018-12-24T23:12:24.236Z,13.30
2018-12-24T23:14:56.411Z,13.63
2018-12-24T23:17:34.964Z,13.73
2018-12-24T23:20:05.332Z,14.00
2018-12-24T23:22:38.417Z,12.87
2018-12-24T23:25:09.585Z,12.93
2018-12-24T23:27:41.054Z,13.17
2018-12-24T23:30:12.213Z,14.13
2018-12-24T23:32:42.505Z,12.50
2018-12-24T23:35:13.155Z,13.17
2018-12-24T23:37:44.120Z,13.50
2018-12-24T23:40:15.410Z,13.03
2018-12-24T23:42:46.184Z,14.13
2018-12-24T23:45:18.253Z,13.57
2018-12-24T23:47:49.690Z,13.37
2018-12-24T23:50:21.366Z,14.10
2018-12-24T23:52:52.981Z,14.00
2018-12-24T23:55:25.417Z,14.37
2018-12-24T23:57:57.468Z,13.40
